Time;durP1;ratioP1;P1;durP2;ratioP2;P2;SDS_P1;SDS_P2;PMS_P1;PMS_P2;Temp;Humidity;BMP_temperature;BMP_pressure;BME280_temperature;BME280_humidity;BME280_pressure;Samples;Min_cycle;Max_cycle;Signal;HPM_P1;HPM_P2
2022/04/17 00:02:02;;;;;;;10.35;6.65;;;;;;;0.55;90.35;96663.63;5101380;28;20098;-75
2022/04/17 00:04:28;;;;;;;13.88;7.20;;;;;;;0.42;91.02;96648.72;5101927;28;20190;-75
2022/04/17 00:06:53;;;;;;;13.23;6.88;;;;;;;0.49;91.09;96655.59;5106149;28;20477;-75
2022/04/17 00:09:19;;;;;;;11.48;6.82;;;;;;;0.56;90.10;96654.88;5094222;28;20036;-75
2022/04/17 00:11:46;;;;;;;12.20;6.85;;;;;;;0.44;90.79;96647.56;5094534;28;20044;-75
2022/04/17 00:14:11;;;;;;;15.35;7.15;;;;;;;0.52;89.73;96650.06;5070305;28;20118;-75
2022/04/17 00:16:40;;;;;;;13.88;6.68;;;;;;;0.50;90.09;96651.22;5096241;28;20059;-75
2022/04/17 00:19:06;;;;;;;10.93;6.68;;;;;;;0.58;89.87;96642.59;5098112;28;20107;-75
2022/04/17 00:21:33;;;;;;;13.60;6.57;;;;;;;0.52;89.62;96644.88;5088915;28;20089;-75
2022/04/17 00:23:59;;;;;;;13.55;7.00;;;;;;;0.48;90.59;96648.81;5087928;28;20512;-74
2022/04/17 00:26:24;;;;;;;11.40;6.90;;;;;;;0.43;90.08;96635.59;5095164;28;20036;-75
2022/04/17 00:28:50;;;;;;;12.55;6.70;;;;;;;0.41;90.62;96637.56;5093937;28;20047;-75
2022/04/17 00:31:16;;;;;;;10.88;6.20;;;;;;;0.36;90.94;96634.69;5099668;28;20039;-75
2022/04/17 00:33:41;;;;;;;10.93;6.15;;;;;;;0.25;90.89;96624.78;5101030;28;20036;-75
2022/04/17 00:36:07;;;;;;;11.93;6.85;;;;;;;0.22;91.51;96622.53;5090131;28;20081;-74
2022/04/17 00:38:32;;;;;;;13.60;6.10;;;;;;;0.27;91.55;96627.97;5096085;28;20117;-74
2022/04/17 00:40:58;;;;;;;9.60;6.25;;;;;;;0.19;91.11;96628.03;5104104;28;20040;-74
2022/04/17 00:43:31;;;;;;;11.00;6.30;;;;;;;0.18;91.18;96627.25;5093554;28;20040;-75
2022/04/17 00:45:58;;;;;;;11.13;6.20;;;;;;;0.16;91.67;96621.47;5088868;28;20044;-74
2022/04/17 00:48:23;;;;;;;12.95;6.22;;;;;;;0.23;90.48;96621.53;5113928;28;20046;-74
2022/04/17 00:50:54;;;;;;;10.20;6.20;;;;;;;0.10;90.96;96615.19;5094525;28;20054;-74
2022/04/17 00:53:23;;;;;;;10.00;6.15;;;;;;;0.10;90.26;96617.78;5105399;28;20058;-75
2022/04/17 00:55:50;;;;;;;9.48;5.80;;;;;;;0.07;90.32;96618.13;5094093;28;20494;-74
2022/04/17 00:58:16;;;;;;;9.95;5.82;;;;;;;0.03;90.12;96616.88;5092361;28;20044;-74
2022/04/17 01:00:41;;;;;;;9.93;6.32;;;;;;;0.00;89.87;96612.06;5110690;28;20050;-74
2022/04/17 01:03:10;;;;;;;9.88;5.90;;;;;;;-0.02;90.20;96611.41;5108662;28;20036;-74
2022/04/17 01:05:39;;;;;;;11.00;6.13;;;;;;;-0.04;90.88;96606.41;5093222;28;20447;-74
2022/04/17 01:08:07;;;;;;;10.80;6.30;;;;;;;-0.02;90.85;96606.25;5091776;28;20467;-74
2022/04/17 01:10:32;;;;;;;10.10;5.85;;;;;;;-0.05;89.82;96607.38;5091426;28;20044;-74
2022/04/17 01:12:59;;;;;;;10.98;5.90;;;;;;;-0.06;90.37;96610.16;5102334;28;20123;-74
2022/04/17 01:15:26;;;;;;;9.18;5.50;;;;;;;-0.01;90.71;96607.84;5103303;28;20040;-74
2022/04/17 01:17:51;;;;;;;10.18;5.35;;;;;;;-0.01;90.31;96600.09;5087954;28;20106;-74
2022/04/17 01:20:17;;;;;;;10.15;5.82;;;;;;;0.02;90.14;96597.16;5101864;28;20189;-74
2022/04/17 01:22:50;;;;;;;12.00;5.78;;;;;;;-0.05;89.91;96604.00;5104933;28;20489;-74
2022/04/17 01:28:05;;;;;;;12.63;5.75;;;;;;;-0.07;90.45;96598.19;5093605;28;20066;-74
2022/04/17 01:30:31;;;;;;;8.85;4.95;;;;;;;-0.08;89.84;96597.38;5105101;28;20111;-74
2022/04/17 01:32:56;;;;;;;8.38;5.18;;;;;;;-0.11;90.04;96599.53;5094061;28;20118;-74
2022/04/17 01:35:22;;;;;;;8.82;5.47;;;;;;;-0.09;88.33;96594.97;5091508;28;20406;-74
2022/04/17 01:37:49;;;;;;;8.98;5.07;;;;;;;-0.04;88.03;96592.69;5091324;28;20044;-74
2022/04/17 01:40:15;;;;;;;11.35;5.35;;;;;;;-0.01;88.25;96597.50;5104765;28;20043;-74
2022/04/17 01:42:41;;;;;;;9.32;5.43;;;;;;;0.04;88.08;96584.81;5100346;28;20036;-74
2022/04/17 01:45:07;;;;;;;10.82;5.65;;;;;;;0.08;88.16;96580.91;5105408;28;20113;-73
2022/04/17 01:47:33;;;;;;;10.13;5.38;;;;;;;0.06;87.75;96577.69;5102528;28;20067;-74
2022/04/17 01:49:58;;;;;;;10.32;5.47;;;;;;;0.11;87.34;96585.72;5104498;28;20489;-74
2022/04/17 01:52:25;;;;;;;10.27;5.40;;;;;;;0.13;86.81;96582.97;5098381;28;20102;-74
2022/04/17 01:54:51;;;;;;;10.10;5.53;;;;;;;0.09;86.82;96582.53;5074987;28;20036;-74
2022/04/17 01:57:17;;;;;;;9.07;5.57;;;;;;;0.09;87.08;96579.94;5097926;28;20570;-73
2022/04/17 01:59:42;;;;;;;8.02;4.72;;;;;;;0.19;87.26;96571.09;5104431;28;20051;-73
2022/04/17 02:02:08;;;;;;;8.80;4.97;;;;;;;0.19;87.16;96565.91;5104326;28;20047;-74
2022/04/17 02:04:35;;;;;;;10.30;5.35;;;;;;;0.09;87.93;96561.81;5090650;28;20044;-74
2022/04/17 02:07:04;;;;;;;10.32;5.47;;;;;;;-0.07;87.37;96567.13;5082992;28;20139;-74
2022/04/17 02:09:30;;;;;;;8.73;5.32;;;;;;;-0.08;88.72;96565.53;5100656;28;20062;-75
2022/04/17 02:11:56;;;;;;;10.35;5.80;;;;;;;0.03;88.24;96559.94;5107465;28;20040;-74
2022/04/17 02:14:22;;;;;;;9.43;5.13;;;;;;;-0.07;88.22;96551.59;5090655;28;20417;-75
2022/04/17 02:16:48;;;;;;;8.10;5.57;;;;;;;-0.18;88.26;96545.09;5103642;28;20044;-75
2022/04/17 02:19:14;;;;;;;11.52;5.85;;;;;;;-0.23;89.85;96555.97;5102463;28;20039;-75
2022/04/17 02:21:39;;;;;;;9.65;5.93;;;;;;;-0.40;89.67;96554.50;5102963;28;20543;-75
2022/04/17 02:24:05;;;;;;;9.63;5.60;;;;;;;-0.21;89.72;96554.00;5093104;28;20494;-75
2022/04/17 02:26:31;;;;;;;9.00;5.53;;;;;;;-0.22;88.90;96547.22;5101165;28;20040;-74
2022/04/17 02:28:58;;;;;;;9.13;5.15;;;;;;;-0.31;89.39;96550.84;5096801;28;20097;-74
2022/04/17 02:31:24;;;;;;;10.65;5.43;;;;;;;-0.30;89.74;96546.47;5098871;28;20047;-75
2022/04/17 02:33:51;;;;;;;7.95;4.90;;;;;;;-0.33;89.05;96542.47;5096292;28;20044;-75
2022/04/17 02:36:17;;;;;;;8.30;5.15;;;;;;;-0.39;89.75;96548.34;5090296;28;20171;-75
2022/04/17 02:38:43;;;;;;;9.23;5.57;;;;;;;-0.51;91.87;96549.75;5095559;28;20119;-74
2022/04/17 02:41:09;;;;;;;9.57;5.40;;;;;;;-0.48;91.44;96545.00;5103733;28;20039;-75
2022/04/17 02:43:34;;;;;;;12.50;5.90;;;;;;;-0.54;91.32;96550.88;5104718;28;20041;-75
2022/04/17 02:46:00;;;;;;;10.77;5.68;;;;;;;-0.45;91.52;96549.81;5099280;28;20044;-75
2022/04/17 02:48:26;;;;;;;8.80;5.80;;;;;;;-0.38;90.80;96545.56;5096951;28;20044;-75
2022/04/17 02:50:51;;;;;;;18.38;6.22;;;;;;;-0.45;90.71;96546.44;5108086;28;20092;-74
2022/04/17 02:53:18;;;;;;;9.85;5.80;;;;;;;-0.45;91.38;96549.81;5103538;28;20039;-74
2022/04/17 02:55:45;;;;;;;12.90;6.13;;;;;;;-0.44;91.92;96545.47;5097368;28;20080;-75
2022/04/17 02:58:10;;;;;;;10.07;5.82;;;;;;;-0.47;91.51;96541.44;5094081;28;20043;-75
2022/04/17 03:06:10;;;;;;;11.13;5.93;;;;;;;-0.36;90.22;96532.47;5089737;28;20038;-74
2022/04/17 03:08:40;;;;;;;10.70;5.75;;;;;;;-0.41;90.07;96532.19;5095982;28;20047;-74
2022/04/17 03:11:05;;;;;;;11.05;5.85;;;;;;;-0.57;90.51;96526.16;5099521;28;20043;-74
2022/04/17 03:13:31;;;;;;;10.32;5.85;;;;;;;-0.58;90.77;96529.72;5103194;28;20111;-74
2022/04/17 03:15:56;;;;;;;12.52;6.10;;;;;;;-0.60;91.80;96526.53;5089475;28;20115;-74
2022/04/17 03:18:22;;;;;;;11.55;5.72;;;;;;;-0.76;91.86;96532.63;5093851;28;20463;-74
2022/04/17 03:20:47;;;;;;;10.90;5.90;;;;;;;-0.72;92.23;96522.72;5104913;28;20067;-74
2022/04/17 03:23:14;;;;;;;9.15;5.70;;;;;;;-0.70;91.88;96526.75;5089152;28;20494;-74
2022/04/17 03:25:40;;;;;;;8.32;5.57;;;;;;;-0.64;91.32;96520.09;5098418;28;20036;-74
2022/04/17 03:28:06;;;;;;;10.05;6.00;;;;;;;-0.71;91.32;96524.34;5092154;28;20533;-74
2022/04/17 03:30:32;;;;;;;11.43;5.68;;;;;;;-0.71;92.11;96524.34;5095934;28;20040;-75
2022/04/17 03:32:59;;;;;;;10.90;6.03;;;;;;;-0.75;92.22;96523.06;5106791;28;20039;-75
2022/04/17 03:35:25;;;;;;;11.23;6.30;;;;;;;-0.89;92.61;96528.03;5094108;28;20096;-75
2022/04/17 03:37:53;;;;;;;11.93;6.00;;;;;;;-0.88;92.90;96534.81;5106708;28;20039;-75
2022/04/17 03:40:19;;;;;;;9.25;5.70;;;;;;;-0.98;93.42;96533.41;5096701;28;20067;-75
2022/04/17 03:42:44;;;;;;;9.50;5.70;;;;;;;-0.93;92.95;96526.75;5102838;28;20067;-75
2022/04/17 03:45:14;;;;;;;10.75;5.88;;;;;;;-0.94;92.53;96525.13;5076794;28;20051;-75
2022/04/17 03:47:40;;;;;;;12.20;6.00;;;;;;;-0.85;92.48;96517.34;5089419;28;20040;-75
2022/04/17 03:50:06;;;;;;;9.02;5.72;;;;;;;-0.94;92.33;96514.78;5104378;28;20050;-76
2022/04/17 03:52:42;;;;;;;11.02;6.28;;;;;;;-1.02;92.41;96514.88;5097855;28;20044;-74
2022/04/17 03:55:08;;;;;;;8.93;5.43;;;;;;;-1.11;92.83;96508.91;5094294;28;20038;-75
2022/04/17 03:57:34;;;;;;;10.55;5.45;;;;;;;-1.07;92.74;96520.53;5094251;28;20036;-74
2022/04/17 04:00:00;;;;;;;9.82;5.63;;;;;;;-1.19;93.05;96518.50;5088618;28;20048;-75
2022/04/17 04:02:28;;;;;;;13.30;5.80;;;;;;;-1.23;93.58;96511.09;5104838;28;20494;-75
2022/04/17 04:04:53;;;;;;;10.50;5.95;;;;;;;-1.23;93.35;96510.31;5109787;28;20108;-75
2022/04/17 04:07:19;;;;;;;10.18;5.30;;;;;;;-1.28;93.45;96508.22;5100757;28;20039;-74
2022/04/17 04:09:44;;;;;;;8.82;5.50;;;;;;;-1.33;93.10;96505.34;5106640;28;20032;-74
2022/04/17 04:12:11;;;;;;;10.50;6.03;;;;;;;-1.36;93.80;96503.09;5107363;28;20100;-74
2022/04/17 04:14:36;;;;;;;9.73;5.32;;;;;;;-1.37;94.09;96514.41;5102539;28;20475;-74
2022/04/17 04:17:02;;;;;;;12.88;5.88;;;;;;;-1.40;94.88;96515.53;5089821;28;20044;-74
2022/04/17 04:19:28;;;;;;;10.57;5.85;;;;;;;-1.41;95.09;96507.97;5088959;28;20576;-74
2022/04/17 04:21:53;;;;;;;10.38;5.70;;;;;;;-1.44;94.36;96508.31;5098154;28;20608;-74
2022/04/17 04:24:19;;;;;;;9.30;5.75;;;;;;;-1.46;94.46;96515.41;5107713;28;20040;-75
2022/04/17 04:28:32;;;;;;;9.38;5.80;;;;;;;-1.49;93.96;96520.94;5096324;28;20044;-74
2022/04/17 04:29:32;;;;;;;11.25;5.80;;;;;;;-1.49;94.79;96518.34;5092390;28;20454;-74
2022/04/17 04:31:58;;;;;;;12.10;5.55;;;;;;;-1.49;94.73;96520.94;5092777;28;20040;-74
2022/04/17 04:34:23;;;;;;;8.88;5.60;;;;;;;-1.59;94.72;96511.59;5092087;28;20111;-74
2022/04/17 04:36:49;;;;;;;9.85;5.65;;;;;;;-1.61;94.74;96518.72;5093229;28;20047;-74
2022/04/17 04:39:15;;;;;;;8.68;5.43;;;;;;;-1.57;94.82;96525.16;5093898;28;20195;-74
2022/04/17 04:41:40;;;;;;;11.05;5.70;;;;;;;-1.56;94.65;96525.94;5101785;28;20051;-74
2022/04/17 04:44:06;;;;;;;9.20;5.63;;;;;;;-1.50;94.25;96519.31;5108411;28;20512;-73
2022/04/17 04:46:31;;;;;;;11.38;5.38;;;;;;;-1.53;95.06;96509.31;5092044;28;20047;-74
2022/04/17 04:51:41;;;;;;;12.68;5.18;;;;;;;-1.53;94.35;96509.31;5091959;28;20074;-74
2022/04/17 04:54:07;;;;;;;11.95;6.10;;;;;;;-1.46;94.17;96510.25;5091754;28;20036;-73
2022/04/17 04:56:33;;;;;;;9.23;5.75;;;;;;;-1.40;94.80;96514.75;5102422;28;20040;-74
2022/04/17 04:58:59;;;;;;;9.95;5.35;;;;;;;-1.33;94.41;96514.88;5092182;28;20044;-74
2022/04/17 05:01:25;;;;;;;10.15;5.30;;;;;;;-1.36;94.31;96516.00;5101555;28;20433;-74
2022/04/17 05:03:50;;;;;;;9.23;5.28;;;;;;;-1.45;94.44;96512.69;5098445;28;20040;-74
2022/04/17 05:06:17;;;;;;;8.70;5.38;;;;;;;-1.40;94.93;96514.75;5092634;28;20032;-74
2022/04/17 05:08:42;;;;;;;9.77;5.40;;;;;;;-1.34;95.00;96519.22;5111187;28;20812;-75
2022/04/17 05:11:08;;;;;;;10.00;5.53;;;;;;;-1.24;94.58;96514.66;5099611;28;20039;-74
2022/04/17 05:13:34;;;;;;;9.30;5.13;;;;;;;-1.17;94.55;96513.97;5100975;28;20431;-74
2022/04/17 05:16:00;;;;;;;9.80;5.63;;;;;;;-0.94;93.76;96516.59;5091964;28;20131;-76
2022/04/17 05:18:26;;;;;;;7.95;5.50;;;;;;;-0.92;93.64;96505.09;5091817;28;20561;-74
2022/04/17 05:20:52;;;;;;;9.10;5.65;;;;;;;-0.85;93.42;96512.16;5091859;28;20071;-74
2022/04/17 05:23:26;;;;;;;11.40;5.90;;;;;;;-0.80;93.83;96509.88;5099329;28;20728;-73
2022/04/17 05:26:01;;;;;;;7.70;4.85;;;;;;;-0.73;92.65;96505.63;5101132;28;20497;-75
2022/04/17 05:28:30;;;;;;;9.02;5.63;;;;;;;-0.61;91.40;96509.38;5091703;28;20036;-74
2022/04/17 05:30:57;;;;;;;9.30;5.05;;;;;;;-0.49;90.56;96511.56;5091356;28;20414;-75
2022/04/17 05:33:23;;;;;;;8.15;4.70;;;;;;;-0.39;89.54;96517.28;5094483;28;20040;-75
2022/04/17 05:35:50;;;;;;;8.35;5.15;;;;;;;-0.44;88.61;96529.97;5106521;28;20098;-75
2022/04/17 05:38:16;;;;;;;8.10;5.20;;;;;;;-0.48;90.36;96528.69;5110109;28;20044;-74
2022/04/17 05:40:45;;;;;;;10.82;5.65;;;;;;;-0.51;90.89;96523.88;5108037;28;20043;-73
2022/04/17 05:43:11;;;;;;;8.68;5.15;;;;;;;-0.54;91.10;96517.25;5106632;28;20094;-73
2022/04/17 05:45:38;;;;;;;7.82;5.03;;;;;;;-0.45;91.59;96518.00;5091216;28;20115;-74
2022/04/17 05:48:06;;;;;;;8.95;5.07;;;;;;;-0.21;90.55;96520.38;5073178;28;20040;-73
2022/04/17 05:50:32;;;;;;;10.63;5.50;;;;;;;-0.01;89.33;96506.94;5106230;28;20039;-75
2022/04/17 05:52:58;;;;;;;7.82;4.78;;;;;;;0.29;87.54;96509.53;5096674;28;20073;-75
2022/04/17 05:55:23;;;;;;;8.93;5.32;;;;;;;0.29;88.82;96509.53;5106193;27;20027;-75
2022/04/17 05:57:49;;;;;;;11.23;5.30;;;;;;;0.46;86.72;96505.75;5088211;28;20036;-75
2022/04/17 06:00:16;;;;;;;8.00;5.28;;;;;;;0.68;86.39;96504.00;5095530;28;20055;-75
2022/04/17 06:02:46;;;;;;;8.73;4.60;;;;;;;0.88;83.81;96502.59;5103750;28;20035;-74
2022/04/17 06:05:13;;;;;;;10.48;4.88;;;;;;;0.92;84.34;96503.84;5099587;28;20118;-74
2022/04/17 06:07:40;;;;;;;7.75;5.05;;;;;;;0.81;86.31;96508.53;5106755;28;20460;-74
2022/04/17 06:10:11;;;;;;;9.07;4.95;;;;;;;0.96;85.20;96518.06;5103082;28;20043;-74
2022/04/17 06:12:38;;;;;;;8.40;5.03;;;;;;;0.86;83.68;96508.81;5100677;28;20051;-74
2022/04/17 06:15:05;;;;;;;8.52;5.20;;;;;;;0.88;85.75;96512.97;5099361;28;20085;-74
2022/04/17 06:17:37;;;;;;;7.25;4.57;;;;;;;0.95;86.05;96519.03;5103648;28;20070;-74
2022/04/17 06:20:05;;;;;;;8.90;5.32;;;;;;;1.02;85.54;96514.72;5095972;28;20035;-73
2022/04/17 06:22:31;;;;;;;10.02;5.32;;;;;;;1.25;82.97;96511.16;5099848;28;20553;-73
2022/04/17 06:24:56;;;;;;;8.07;5.00;;;;;;;1.56;81.38;96511.63;5105959;28;20106;-74
2022/04/17 06:27:22;;;;;;;9.10;5.50;;;;;;;1.62;81.32;96504.09;5099164;28;20386;-74
2022/04/17 06:29:48;;;;;;;8.80;5.40;;;;;;;1.74;80.72;96512.97;5090519;28;20489;-73
2022/04/17 06:32:13;;;;;;;9.82;5.60;;;;;;;1.73;81.78;96516.56;5100987;28;20046;-74
2022/04/17 06:34:39;;;;;;;10.23;4.70;;;;;;;1.85;81.19;96515.06;5104676;28;20489;-74
2022/04/17 06:37:04;;;;;;;9.90;5.53;;;;;;;2.22;78.27;96510.47;5098207;28;20493;-74
2022/04/17 06:39:30;;;;;;;9.60;5.45;;;;;;;2.38;78.37;96513.75;5097181;28;20076;-74
2022/04/17 06:41:57;;;;;;;8.82;5.38;;;;;;;2.53;75.50;96511.03;5102106;28;20034;-74
2022/04/17 06:44:22;;;;;;;9.88;5.70;;;;;;;2.43;78.36;96516.59;5106837;28;20071;-74
2022/04/17 06:46:48;;;;;;;12.48;5.43;;;;;;;2.49;77.16;96508.03;5101459;28;20062;-74
2022/04/17 06:49:14;;;;;;;11.32;5.45;;;;;;;2.73;75.54;96506.72;5093890;28;20119;-74
2022/04/17 06:51:40;;;;;;;10.90;5.65;;;;;;;2.92;74.92;96515.56;5091059;28;20040;-75
2022/04/17 06:54:06;;;;;;;11.27;5.78;;;;;;;2.82;75.71;96504.75;5089898;28;20040;-75
2022/04/17 06:56:33;;;;;;;8.88;5.43;;;;;;;3.15;73.68;96509.22;5091384;28;20048;-74
2022/04/17 06:58:59;;;;;;;10.13;5.53;;;;;;;3.15;74.48;96509.22;5106928;28;20042;-74
2022/04/17 07:01:24;;;;;;;8.77;5.82;;;;;;;2.90;77.10;96501.97;5108324;28;20044;-74
2022/04/17 07:03:50;;;;;;;9.45;5.85;;;;;;;2.91;75.39;96507.97;5101941;28;20097;-74
2022/04/17 07:06:15;;;;;;;10.35;5.90;;;;;;;3.21;74.28;96508.44;5091178;28;20486;-75
2022/04/17 07:08:41;;;;;;;10.55;5.88;;;;;;;3.29;74.41;96515.28;5108520;28;20092;-74
2022/04/17 07:11:06;;;;;;;9.75;5.60;;;;;;;3.28;73.42;96501.44;5089734;28;20482;-74
2022/04/17 07:13:32;;;;;;;10.50;5.90;;;;;;;3.37;71.54;96501.25;5089144;28;20445;-75
2022/04/17 07:15:58;;;;;;;10.30;6.30;;;;;;;3.60;71.21;96501.66;5089540;28;20076;-75
2022/04/17 07:18:24;;;;;;;10.45;5.93;;;;;;;3.61;72.29;96503.28;5109567;28;20212;-76
2022/04/17 07:20:49;;;;;;;9.98;5.90;;;;;;;3.62;69.03;96502.28;5107833;28;20464;-76
2022/04/17 07:23:15;;;;;;;13.63;5.88;;;;;;;3.83;69.87;96497.84;5103320;28;20039;-76
2022/04/17 07:25:41;;;;;;;10.68;5.97;;;;;;;4.08;65.99;96486.78;5108707;28;20043;-74
2022/04/17 07:28:14;;;;;;;10.23;5.80;;;;;;;4.09;66.00;96493.59;5113163;27;20118;-77
2022/04/17 07:30:40;;;;;;;10.68;5.95;;;;;;;4.41;64.42;96496.31;5097417;28;20067;-74
2022/04/17 07:33:06;;;;;;;8.93;5.38;;;;;;;4.46;63.61;96499.13;5090273;28;20032;-74
2022/04/17 07:35:32;;;;;;;14.07;5.65;;;;;;;4.68;61.85;96494.41;5097634;28;20493;-73
2022/04/17 07:38:00;;;;;;;11.57;6.10;;;;;;;4.65;61.43;96492.22;5100414;28;20085;-72
2022/04/17 07:40:28;;;;;;;9.27;5.75;;;;;;;4.56;61.72;96491.66;5102776;28;20583;-73
2022/04/17 07:42:55;;;;;;;10.15;5.82;;;;;;;4.56;61.82;96491.66;5104108;28;20039;-73
2022/04/17 07:45:22;;;;;;;11.10;5.72;;;;;;;4.63;62.72;96495.06;5098263;28;20426;-75
2022/04/17 07:47:48;;;;;;;10.80;5.90;;;;;;;4.96;60.75;96503.75;5104492;28;20040;-73
2022/04/17 07:50:16;;;;;;;9.90;5.50;;;;;;;4.97;57.95;96500.91;5119508;28;20097;-75
2022/04/17 07:52:43;;;;;;;12.13;5.53;;;;;;;4.93;57.64;96494.53;5082477;28;20485;-73
2022/04/17 07:55:13;;;;;;;9.88;5.50;;;;;;;4.82;55.57;96492.56;5101421;28;20051;-74
2022/04/17 08:00:27;;;;;;;10.80;5.70;;;;;;;5.18;59.10;96493.78;5104153;28;20051;-74
2022/04/17 08:03:06;;;;;;;11.65;5.35;;;;;;;5.08;58.33;96496.84;5099806;28;20100;-75
2022/04/17 08:05:35;;;;;;;10.52;5.50;;;;;;;5.16;56.70;96486.16;5100526;28;20039;-72
2022/04/17 08:08:01;;;;;;;8.52;5.00;;;;;;;5.46;55.81;96482.13;5093816;28;20052;-73
2022/04/17 08:10:26;;;;;;;8.70;5.10;;;;;;;5.64;58.02;96471.75;5093587;28;20040;-73
2022/04/17 08:12:52;;;;;;;8.63;5.40;;;;;;;5.86;54.59;96479.19;5094866;28;20110;-73
2022/04/17 08:15:17;;;;;;;10.57;5.03;;;;;;;5.54;55.31;96474.03;5099143;28;20036;-73
2022/04/17 08:17:43;;;;;;;8.30;5.10;;;;;;;5.51;56.38;96484.91;5109611;28;20409;-74
2022/04/17 08:20:09;;;;;;;10.50;5.35;;;;;;;5.61;55.83;96477.41;5104406;28;20047;-74
2022/04/17 08:22:35;;;;;;;9.13;4.82;;;;;;;5.79;55.13;96475.84;5107128;28;20472;-75
2022/04/17 08:25:01;;;;;;;10.18;5.43;;;;;;;5.87;54.57;96476.34;5108472;28;20059;-73
2022/04/17 08:27:26;;;;;;;9.90;5.05;;;;;;;6.15;54.37;96463.84;5109564;28;20047;-74
2022/04/17 08:29:52;;;;;;;10.40;5.05;;;;;;;5.95;55.51;96464.84;5115207;27;20040;-74
2022/04/17 08:32:17;;;;;;;10.07;4.93;;;;;;;5.95;55.39;96464.84;5106159;27;20103;-74
2022/04/17 08:34:43;;;;;;;7.30;4.43;;;;;;;6.02;56.82;96459.56;5103369;28;20056;-73
2022/04/17 08:37:09;;;;;;;9.45;5.20;;;;;;;5.82;54.54;96455.31;5112122;28;20044;-75
2022/04/17 08:39:35;;;;;;;9.50;4.93;;;;;;;6.01;57.17;96464.00;5113639;28;20501;-72
2022/04/17 08:42:02;;;;;;;8.55;5.05;;;;;;;5.97;55.14;96455.00;5106931;28;20574;-72
2022/04/17 08:44:27;;;;;;;9.18;4.57;;;;;;;5.90;54.51;96451.63;5099334;28;20039;-72
2022/04/17 08:46:54;;;;;;;11.00;4.78;;;;;;;6.04;53.68;96453.13;5095889;28;20047;-72
2022/04/17 08:49:20;;;;;;;6.35;4.35;;;;;;;6.04;54.96;96447.09;5092911;28;20032;-72
2022/04/17 08:51:48;;;;;;;9.40;5.25;;;;;;;6.38;56.22;96443.09;5104123;28;20042;-73
2022/04/17 08:54:14;;;;;;;10.73;4.88;;;;;;;6.21;54.96;96442.09;5102102;28;20040;-73
2022/04/17 08:56:40;;;;;;;10.98;5.40;;;;;;;6.48;54.73;96441.78;5103930;28;20212;-72
2022/04/17 08:59:06;;;;;;;8.63;4.78;;;;;;;6.48;53.68;96439.16;5081586;27;20050;-72
2022/04/17 09:01:35;;;;;;;7.95;4.63;;;;;;;6.39;53.06;96428.19;5112757;27;20042;-72
2022/04/17 09:04:02;;;;;;;9.95;4.63;;;;;;;6.56;54.01;96431.00;5109448;28;20583;-72
2022/04/17 09:06:28;;;;;;;8.00;4.50;;;;;;;6.60;55.38;96426.94;5104264;27;20040;-72
2022/04/17 09:09:03;;;;;;;8.70;4.70;;;;;;;6.66;52.34;96420.81;5094849;28;20042;-71
2022/04/17 09:11:30;;;;;;;7.78;4.55;;;;;;;6.68;52.10;96421.41;5103655;28;20040;-71
2022/04/17 09:13:57;;;;;;;7.63;4.60;;;;;;;6.88;53.50;96420.31;5117329;27;20449;-72
2022/04/17 09:16:31;;;;;;;11.35;4.93;;;;;;;6.87;51.77;96419.53;5099719;27;20039;-73
2022/04/17 09:18:57;;;;;;;8.75;4.28;;;;;;;6.90;50.98;96423.53;5113316;28;20109;-72
2022/04/17 09:21:32;;;;;;;10.27;4.20;;;;;;;7.09;50.35;96417.19;5120184;27;20066;-71
2022/04/17 09:24:16;;;;;;;5.85;3.58;;;;;;;7.66;48.59;96418.53;5097056;28;20093;-72
2022/04/17 09:26:50;;;;;;;6.70;3.85;;;;;;;7.66;47.25;96415.91;5101603;27;20040;-73
2022/04/17 09:29:30;;;;;;;6.43;4.00;;;;;;;7.42;47.43;96413.25;5111811;27;20040;-72
2022/04/17 09:32:04;;;;;;;7.50;3.95;;;;;;;7.38;47.71;96408.72;5101838;28;20043;-71
2022/04/17 09:34:55;;;;;;;6.57;3.55;;;;;;;7.23;46.10;96407.34;5102709;27;20319;-70
2022/04/17 09:37:27;;;;;;;6.15;4.10;;;;;;;7.26;46.61;96401.63;5100489;28;20040;-71
2022/04/17 09:40:04;;;;;;;8.07;3.80;;;;;;;7.26;47.33;96385.13;5094919;28;20859;-71
2022/04/17 09:42:30;;;;;;;5.32;3.50;;;;;;;7.26;45.99;96379.91;5095445;28;20051;-73
2022/04/17 09:44:57;;;;;;;5.00;3.00;;;;;;;7.35;44.48;96377.75;5102530;28;20051;-73
2022/04/17 09:47:26;;;;;;;6.85;3.72;;;;;;;7.38;44.64;96388.56;5102875;28;20449;-72
2022/04/17 09:50:03;;;;;;;6.32;4.07;;;;;;;7.53;46.36;96372.41;5100501;28;20500;-74
2022/04/17 09:52:31;;;;;;;6.70;3.53;;;;;;;8.11;45.65;96365.47;5097015;28;20046;-74
2022/04/17 09:55:02;;;;;;;8.85;3.95;;;;;;;8.24;44.40;96353.13;5101129;27;20039;-73
2022/04/17 09:57:28;;;;;;;7.68;3.72;;;;;;;8.53;43.93;96359.19;5091416;28;20504;-74
2022/04/17 09:59:56;;;;;;;5.40;3.58;;;;;;;8.48;42.89;96359.13;5104084;28;20039;-73
2022/04/17 10:02:23;;;;;;;5.25;3.35;;;;;;;8.75;42.23;96354.09;5099718;28;20040;-74
2022/04/17 10:04:49;;;;;;;5.32;3.70;;;;;;;8.72;44.40;96344.06;5105061;28;20039;-76
2022/04/17 10:07:18;;;;;;;8.45;4.30;;;;;;;8.35;45.09;96336.56;5106476;28;20050;-74
2022/04/17 10:09:46;;;;;;;7.63;4.10;;;;;;;8.70;44.63;96340.09;5111260;28;20047;-75
2022/04/17 10:12:19;;;;;;;7.53;3.90;;;;;;;9.50;48.73;96328.44;5110649;28;20674;-75
2022/04/17 10:14:47;;;;;;;5.53;3.50;;;;;;;9.77;44.73;96338.28;5099431;28;20063;-75
2022/04/17 10:17:14;;;;;;;5.70;3.90;;;;;;;10.11;44.93;96322.34;5089730;28;20100;-74
2022/04/17 10:19:42;;;;;;;10.63;4.28;;;;;;;9.82;43.18;96317.28;5100676;28;20426;-74
2022/04/17 10:22:09;;;;;;;5.95;3.70;;;;;;;10.17;44.04;96316.13;5110177;28;20512;-75
2022/04/17 10:24:39;;;;;;;5.38;3.80;;;;;;;10.95;42.74;96308.97;5104233;28;20043;-75
2022/04/17 10:27:07;;;;;;;8.05;3.97;;;;;;;11.49;41.32;96298.25;5100728;28;20043;-75
2022/04/17 10:29:45;;;;;;;6.95;4.10;;;;;;;11.58;41.68;96299.38;5090768;28;20043;-74
2022/04/17 10:32:23;;;;;;;6.28;4.00;;;;;;;12.00;39.67;96305.66;5090758;28;20044;-75
2022/04/17 10:35:17;;;;;;;5.72;4.00;;;;;;;11.06;41.25;96302.72;5090716;28;20036;-75
2022/04/17 10:38:07;;;;;;;6.72;3.85;;;;;;;11.56;40.18;96298.03;5090302;28;20141;-75
2022/04/17 10:40:33;;;;;;;5.65;3.80;;;;;;;11.30;40.63;96295.25;5090579;28;20050;-75
2022/04/17 10:43:00;;;;;;;6.05;4.00;;;;;;;11.70;39.06;96287.81;5089340;28;20040;-75
2022/04/17 10:45:27;;;;;;;5.88;4.47;;;;;;;12.39;39.75;96288.59;5090437;28;20170;-75
2022/04/17 10:48:10;;;;;;;6.38;3.50;;;;;;;12.28;38.07;96271.94;5090293;28;20111;-74
2022/04/17 10:50:48;;;;;;;5.68;3.30;;;;;;;13.83;34.41;96272.59;5105663;28;20044;-74
2022/04/17 10:53:28;;;;;;;5.50;3.45;;;;;;;13.96;34.29;96266.72;5108946;28;20048;-74
2022/04/17 10:56:06;;;;;;;5.65;3.25;;;;;;;13.41;36.92;96261.38;5108356;28;20044;-74
2022/04/17 10:58:41;;;;;;;5.75;4.05;;;;;;;13.48;37.07;96263.75;5091032;28;20044;-74
2022/04/17 11:01:09;;;;;;;6.30;4.30;;;;;;;12.92;36.49;96268.03;5090850;28;20055;-75
2022/04/17 11:03:36;;;;;;;7.53;3.40;;;;;;;13.06;35.11;96259.56;5096795;28;20038;-74
2022/04/17 11:06:39;;;;;;;6.35;3.70;;;;;;;13.66;34.76;96263.16;5101171;28;20455;-74
2022/04/17 11:09:21;;;;;;;5.75;3.47;;;;;;;13.37;33.91;96264.81;5007423;28;20494;-74
2022/04/17 11:11:47;;;;;;;7.22;3.97;;;;;;;13.40;35.20;96259.00;5007392;28;20048;-74
2022/04/17 11:14:19;;;;;;;5.63;3.78;;;;;;;14.67;34.29;96270.03;5054662;28;20078;-74
2022/04/17 11:16:48;;;;;;;5.00;3.50;;;;;;;13.30;34.54;96265.06;5090928;28;20156;-74
2022/04/17 11:19:15;;;;;;;6.88;3.90;;;;;;;13.25;32.31;96268.53;5110122;28;20099;-74
2022/04/17 11:21:43;;;;;;;6.63;3.80;;;;;;;14.99;33.26;96271.38;5110014;28;20066;-74
2022/04/17 11:24:09;;;;;;;4.80;3.80;;;;;;;13.49;32.08;96258.19;5090707;28;20048;-74
2022/04/17 11:26:53;;;;;;;6.28;3.95;;;;;;;13.92;34.26;96254.31;5101698;28;20035;-74
2022/04/17 11:29:50;;;;;;;5.83;3.70;;;;;;;15.22;33.95;96248.63;5089554;28;20036;-74
2022/04/17 11:32:18;;;;;;;8.93;4.90;;;;;;;13.86;33.27;96240.31;5082208;28;20292;-74
2022/04/17 11:34:55;;;;;;;6.20;4.32;;;;;;;13.92;33.96;96249.81;5070849;28;20040;-74
2022/04/17 11:37:22;;;;;;;7.07;4.15;;;;;;;14.52;32.02;96247.09;5089492;28;20142;-74
2022/04/17 11:39:49;;;;;;;6.93;4.60;;;;;;;13.91;33.50;96242.94;5099068;28;20122;-74
2022/04/17 11:42:15;;;;;;;6.07;4.00;;;;;;;14.61;34.15;96244.63;5110012;28;20051;-74
2022/04/17 11:44:42;;;;;;;8.38;4.60;;;;;;;13.72;33.20;96242.78;5087014;28;20429;-74
2022/04/17 11:47:12;;;;;;;6.60;3.90;;;;;;;14.10;33.48;96242.31;5097965;28;20044;-74
2022/04/17 11:49:39;;;;;;;6.20;3.78;;;;;;;16.11;32.75;96231.41;5109434;28;20079;-74
2022/04/17 11:52:13;;;;;;;7.38;3.95;;;;;;;14.62;33.20;96232.97;5091095;28;20047;-74